Time;durP1;ratioP1;P1;durP2;ratioP2;P2;SDS_P1;SDS_P2;PMS_P1;PMS_P2;Temp;Humidity;BMP_temperature;BMP_pressure;BME280_temperature;BME280_humidity;BME280_pressure;Samples;Min_cycle;Max_cycle;Signal;HPM_P1;HPM_P2
2024/01/08 00:00:37;;;;;;;8.20;1.48;;;;;;;0.73;100.00;102097.72;6121603;23;20405;-94
2024/01/08 00:03:03;;;;;;;4.18;1.65;;;;;;;0.88;100.00;102093.59;6121256;23;20037;-92
2024/01/08 00:05:28;;;;;;;3.72;1.65;;;;;;;0.73;100.00;102102.81;6122738;23;20452;-93
2024/01/08 00:07:53;;;;;;;4.60;1.40;;;;;;;0.66;100.00;102102.72;6122363;23;20059;-93
2024/01/08 00:10:19;;;;;;;7.38;1.65;;;;;;;0.66;100.00;102098.50;6122635;23;20002;-94
2024/01/08 00:12:44;;;;;;;3.88;1.35;;;;;;;0.60;100.00;102100.97;6121125;23;20013;-94
2024/01/08 00:15:10;;;;;;;6.05;1.40;;;;;;;0.66;100.00;102100.19;6122281;23;20337;-93
2024/01/08 00:17:35;;;;;;;5.57;1.80;;;;;;;0.58;100.00;102097.56;6121415;23;20306;-95
2024/01/08 00:20:00;;;;;;;6.15;1.42;;;;;;;0.55;100.00;102097.53;6120903;23;20006;-93
2024/01/08 00:22:26;;;;;;;4.93;1.40;;;;;;;0.50;100.00;102094.94;6120507;23;20425;-93
2024/01/08 00:24:51;;;;;;;6.95;1.30;;;;;;;0.53;100.00;102104.28;6120077;23;20057;-93
2024/01/08 00:27:16;;;;;;;5.93;1.80;;;;;;;0.57;100.00;102100.94;6120292;23;20006;-93
2024/01/08 00:29:42;;;;;;;4.50;1.20;;;;;;;0.59;100.00;102099.28;6120346;23;20013;-93
2024/01/08 00:32:07;;;;;;;2.05;1.13;;;;;;;0.49;100.00;102095.78;6121001;23;20013;-93
2024/01/08 00:34:33;;;;;;;4.90;1.23;;;;;;;0.52;100.00;102092.44;6120252;23;20056;-93
2024/01/08 00:36:58;;;;;;;2.58;1.55;;;;;;;0.54;100.00;102090.75;6121818;23;20418;-93
2024/01/08 00:39:25;;;;;;;4.15;1.80;;;;;;;0.53;100.00;102099.19;6122234;23;20417;-93
2024/01/08 00:41:51;;;;;;;1.75;1.10;;;;;;;0.56;100.00;102100.09;6119488;23;20013;-93
2024/01/08 00:44:16;;;;;;;6.72;1.50;;;;;;;0.58;100.00;102093.31;6121624;23;20010;-93
2024/01/08 00:46:42;;;;;;;7.00;1.45;;;;;;;0.54;100.00;102093.31;6119717;23;20010;-94
2024/01/08 00:49:07;;;;;;;7.80;1.60;;;;;;;0.62;100.00;102087.44;6120405;23;20433;-92
2024/01/08 00:51:32;;;;;;;6.15;1.30;;;;;;;0.67;100.00;102094.28;6119245;23;20085;-94
2024/01/08 00:53:58;;;;;;;2.28;1.27;;;;;;;0.65;100.00;102104.41;6120182;23;20002;-94
2024/01/08 00:56:23;;;;;;;10.20;1.63;;;;;;;0.68;100.00;102101.91;6121541;23;20006;-93
2024/01/08 00:58:48;;;;;;;8.88;1.70;;;;;;;0.72;100.00;102110.41;6121748;23;20005;-92
2024/01/08 01:01:14;;;;;;;5.53;1.88;;;;;;;0.65;100.00;102106.94;6120288;23;20010;-93
2024/01/08 01:03:40;;;;;;;7.15;1.42;;;;;;;0.62;100.00;102099.31;6122125;23;20006;-93
2024/01/08 01:06:05;;;;;;;4.40;1.60;;;;;;;0.69;100.00;102090.91;6121151;23;20310;-92
2024/01/08 01:08:31;;;;;;;8.32;1.58;;;;;;;0.69;100.00;102093.44;6121751;23;20012;-93
2024/01/08 01:10:56;;;;;;;3.40;1.20;;;;;;;0.59;100.00;102094.19;6121434;23;20016;-93
2024/01/08 01:13:21;;;;;;;5.57;1.48;;;;;;;0.61;100.00;102098.47;6119737;23;20002;-93
2024/01/08 01:15:47;;;;;;;6.60;1.52;;;;;;;0.58;100.00;102095.88;6120359;23;20006;-93
2024/01/08 01:18:12;;;;;;;4.22;1.40;;;;;;;0.68;100.00;102089.19;6119550;23;20006;-93
2024/01/08 01:20:38;;;;;;;2.03;1.13;;;;;;;0.74;100.00;102101.13;6120288;23;20044;-94
2024/01/08 01:23:03;;;;;;;4.93;1.27;;;;;;;0.70;100.00;102086.66;6120152;23;20033;-92
2024/01/08 01:25:28;;;;;;;4.60;1.45;;;;;;;0.73;100.00;102102.81;6120393;23;20006;-93
2024/01/08 01:27:54;;;;;;;8.77;1.60;;;;;;;0.76;100.00;102092.69;6120031;23;20026;-93
2024/01/08 01:30:19;;;;;;;10.43;1.40;;;;;;;0.73;100.00;102092.66;6120502;23;20006;-92
2024/01/08 01:32:44;;;;;;;6.03;1.25;;;;;;;0.66;100.00;102090.00;6119214;23;20006;-93
2024/01/08 01:35:10;;;;;;;5.90;1.20;;;;;;;0.85;100.00;102087.69;6120291;23;20088;-93
2024/01/08 01:37:35;;;;;;;2.00;1.13;;;;;;;0.84;100.00;102101.22;6120210;23;20049;-92
2024/01/08 01:40:00;;;;;;;3.40;1.40;;;;;;;0.76;100.00;102107.91;6120359;23;20013;-92
2024/01/08 01:42:26;;;;;;;8.93;1.27;;;;;;;0.78;100.00;102098.63;6120679;23;20006;-92
2024/01/08 01:44:51;;;;;;;3.70;1.33;;;;;;;0.80;100.00;102091.84;6120062;23;20414;-93
2024/01/08 01:47:17;;;;;;;11.02;1.23;;;;;;;0.83;100.00;102096.97;6119645;23;20025;-93
2024/01/08 01:49:42;;;;;;;6.80;1.13;;;;;;;0.83;100.00;102106.31;6120236;23;20063;-93
2024/01/08 01:52:09;;;;;;;5.80;1.25;;;;;;;0.92;99.85;102102.97;6119860;23;20376;-91
2024/01/08 01:54:35;;;;;;;8.00;1.10;;;;;;;0.95;98.59;102105.53;6120377;23;20069;-93
2024/01/08 01:57:03;;;;;;;3.63;0.80;;;;;;;1.02;97.50;102104.75;6120002;23;20013;-94
2024/01/08 01:59:28;;;;;;;2.40;0.95;;;;;;;1.04;96.96;102106.47;6120255;23;20009;-92
2024/01/08 02:01:58;;;;;;;2.90;1.27;;;;;;;1.04;95.56;102115.81;6119615;23;20010;-92
2024/01/08 02:04:27;;;;;;;4.32;1.13;;;;;;;1.12;96.82;102120.94;6119664;23;20428;-93
2024/01/08 02:06:54;;;;;;;10.32;2.42;;;;;;;1.05;96.88;102109.91;6120192;23;19998;-92
2024/01/08 02:09:20;;;;;;;4.38;1.58;;;;;;;1.18;94.47;102111.69;6120140;23;20006;-93
2024/01/08 02:11:45;;;;;;;6.35;1.58;;;;;;;1.13;98.61;102113.34;6121761;23;20052;-92
2024/01/08 02:14:12;;;;;;;3.40;1.00;;;;;;;1.10;97.56;102113.31;6121416;23;20085;-92
2024/01/08 02:16:37;;;;;;;5.38;2.25;;;;;;;1.06;97.79;102107.34;6119770;23;20014;-94
2024/01/08 02:19:03;;;;;;;5.07;1.58;;;;;;;1.05;97.77;102109.91;6119778;23;20335;-92
2024/01/08 02:21:28;;;;;;;5.07;1.52;;;;;;;0.94;98.03;102117.41;6119839;23;20447;-93
2024/01/08 02:23:53;;;;;;;5.85;1.45;;;;;;;0.88;98.86;102119.91;6120232;23;20005;-93
2024/01/08 02:26:21;;;;;;;4.18;1.10;;;;;;;0.79;98.58;102123.19;6119757;23;20060;-93
2024/01/08 02:28:46;;;;;;;5.65;1.48;;;;;;;0.80;99.17;102117.25;6120436;23;20002;-94
2024/01/08 02:31:12;;;;;;;5.50;1.35;;;;;;;0.77;98.84;102132.50;6120665;23;20018;-93
2024/01/08 02:33:37;;;;;;;2.00;1.02;;;;;;;0.79;97.23;102133.38;6120326;23;20429;-92
2024/01/08 02:36:03;;;;;;;7.00;1.50;;;;;;;0.81;95.41;102136.78;6118274;23;20002;-94
2024/01/08 02:38:28;;;;;;;4.97;1.35;;;;;;;0.78;95.55;102125.72;6119655;23;20014;-93
2024/01/08 02:40:54;;;;;;;11.05;1.63;;;;;;;0.72;97.43;102126.50;6120387;23;20101;-94
2024/01/08 02:43:19;;;;;;;4.88;1.08;;;;;;;0.82;94.60;102125.75;6120617;23;20016;-95
2024/01/08 02:45:44;;;;;;;4.15;1.73;;;;;;;0.72;96.83;102128.22;6121399;23;20010;-94
2024/01/08 02:48:10;;;;;;;5.65;1.40;;;;;;;0.66;99.87;102131.53;6120815;23;20009;-94
2024/01/08 02:50:35;;;;;;;3.63;0.95;;;;;;;0.74;97.58;102129.09;6121140;23;20010;-93
2024/01/08 02:53:01;;;;;;;5.60;0.95;;;;;;;0.73;96.47;102135.84;6120460;23;20005;-93
2024/01/08 02:55:26;;;;;;;8.27;1.13;;;;;;;0.66;97.18;102133.22;6121856;23;20065;-93
2024/01/08 02:57:51;;;;;;;2.33;0.90;;;;;;;0.64;96.97;102128.13;6119641;23;20010;-94
2024/01/08 03:00:17;;;;;;;4.22;1.00;;;;;;;0.56;98.45;102129.72;6120739;23;20421;-95
2024/01/08 03:02:42;;;;;;;4.45;1.58;;;;;;;0.60;99.16;102131.47;6120264;23;20006;-93
2024/01/08 03:05:08;;;;;;;4.53;1.10;;;;;;;0.55;100.00;102139.03;6120345;23;20009;-93
2024/01/08 03:07:33;;;;;;;10.85;2.92;;;;;;;0.47;100.00;102134.72;6120342;23;20067;-94
2024/01/08 03:09:59;;;;;;;3.55;1.50;;;;;;;0.45;100.00;102137.22;6120234;23;20076;-94
2024/01/08 03:12:25;;;;;;;8.88;1.60;;;;;;;0.39;100.00;102143.09;6120842;23;20413;-92
2024/01/08 03:14:51;;;;;;;4.63;1.30;;;;;;;0.49;100.00;102138.09;6119114;23;20017;-95
2024/01/08 03:17:16;;;;;;;6.63;1.20;;;;;;;0.48;100.00;102136.41;6120651;23;20014;-95
2024/01/08 03:19:42;;;;;;;3.67;1.40;;;;;;;0.43;100.00;102134.66;6121408;23;20495;-94
2024/01/08 03:22:07;;;;;;;3.15;2.08;;;;;;;0.38;100.00;102136.28;6120960;23;20006;-92
2024/01/08 03:24:34;;;;;;;6.43;1.50;;;;;;;0.42;100.00;102137.19;6120182;23;20116;-94
2024/01/08 03:26:59;;;;;;;4.05;1.15;;;;;;;0.35;100.00;102136.25;6120218;23;20014;-93
2024/01/08 03:29:25;;;;;;;4.72;1.23;;;;;;;0.43;99.66;102139.72;6120016;23;20013;-94
2024/01/08 03:31:51;;;;;;;2.63;0.90;;;;;;;0.36;100.00;102132.03;6120233;23;20384;-92
2024/01/08 03:34:16;;;;;;;3.72;1.20;;;;;;;0.36;100.00;102137.94;6119558;23;20381;-96
2024/01/08 03:36:46;;;;;;;7.50;1.00;;;;;;;0.42;100.00;102142.28;6120091;23;20089;-93
2024/01/08 03:39:12;;;;;;;4.38;0.85;;;;;;;0.40;100.00;102143.94;6120185;23;20040;-94
2024/01/08 03:41:38;;;;;;;3.30;0.93;;;;;;;0.31;100.00;102144.66;6119735;23;20006;-94
2024/01/08 03:44:04;;;;;;;2.75;1.08;;;;;;;0.28;100.00;102143.78;6121755;23;20010;-94
2024/01/08 03:46:29;;;;;;;4.97;0.98;;;;;;;0.41;99.00;102155.78;6119767;23;20425;-94
2024/01/08 03:48:54;;;;;;;1.98;0.98;;;;;;;0.33;100.00;102143.00;6121274;23;19998;-93
2024/01/08 03:51:20;;;;;;;4.53;1.00;;;;;;;0.38;100.00;102154.06;6120400;23;20013;-93
2024/01/08 03:53:45;;;;;;;4.97;1.23;;;;;;;0.40;98.57;102156.63;6121446;23;20002;-93
2024/01/08 03:56:10;;;;;;;7.10;1.35;;;;;;;0.38;99.22;102161.69;6120843;23;20033;-93
2024/01/08 03:58:37;;;;;;;5.50;1.23;;;;;;;0.27;100.00;102155.66;6120976;23;20486;-93
2024/01/08 04:01:03;;;;;;;4.18;0.95;;;;;;;0.21;100.00;102148.78;6120092;23;20016;-93
2024/01/08 04:03:29;;;;;;;5.47;0.80;;;;;;;0.34;98.63;102159.09;6121237;23;20002;-93
2024/01/08 04:05:54;;;;;;;3.63;0.98;;;;;;;0.34;98.67;102159.97;6119916;23;20084;-93
2024/01/08 04:08:20;;;;;;;6.25;1.05;;;;;;;0.28;99.05;102164.94;6121661;23;20476;-94
2024/01/08 04:10:45;;;;;;;4.63;0.88;;;;;;;0.20;99.08;102159.78;6118755;23;20006;-93
2024/01/08 04:13:11;;;;;;;3.95;1.90;;;;;;;0.33;96.28;102158.25;6121203;23;20006;-93
2024/01/08 04:15:36;;;;;;;2.95;1.00;;;;;;;0.32;97.07;102156.56;6119966;23;20002;-94
2024/01/08 04:18:04;;;;;;;5.03;1.35;;;;;;;0.27;97.24;102160.72;6120087;23;20079;-93
2024/01/08 04:20:30;;;;;;;5.20;0.70;;;;;;;0.26;96.19;102163.22;6119790;23;20072;-93
2024/01/08 04:22:55;;;;;;;5.93;0.90;;;;;;;0.23;96.40;102161.50;6120359;23;20418;-93
2024/01/08 04:25:20;;;;;;;3.45;0.82;;;;;;;0.22;95.38;102157.28;6118922;23;20009;-94
2024/01/08 04:27:46;;;;;;;2.80;0.70;;;;;;;0.24;96.36;102163.19;6120809;23;20062;-93
2024/01/08 04:30:12;;;;;;;6.35;0.95;;;;;;;0.25;94.69;102157.31;6121178;23;20006;-94
2024/01/08 04:32:37;;;;;;;1.88;0.73;;;;;;;0.35;93.03;102159.13;6120895;23;20005;-95
2024/01/08 04:35:03;;;;;;;4.38;0.88;;;;;;;0.26;93.85;102161.53;6120883;23;20084;-93
2024/01/08 04:37:28;;;;;;;5.65;0.60;;;;;;;0.32;93.03;102155.69;6120894;23;20014;-94
2024/01/08 04:39:54;;;;;;;4.70;0.80;;;;;;;0.26;93.23;102164.06;6120013;23;20087;-95
2024/01/08 04:42:19;;;;;;;2.92;0.85;;;;;;;0.25;94.17;102164.06;6120469;23;20077;-95
2024/01/08 04:44:46;;;;;;;1.52;0.68;;;;;;;0.06;96.11;102156.19;6120517;23;20098;-93
2024/01/08 04:47:11;;;;;;;5.53;1.40;;;;;;;0.10;95.77;102159.63;6120708;23;20002;-94
2024/01/08 04:49:37;;;;;;;4.03;0.70;;;;;;;0.05;98.64;102166.31;6120716;23;20013;-95
2024/01/08 04:52:02;;;;;;;2.70;0.70;;;;;;;0.01;97.97;102162.06;6119844;23;20081;-92
2024/01/08 04:54:27;;;;;;;5.53;1.15;;;;;;;0.07;95.74;102164.66;6121391;23;20028;-93
2024/01/08 04:56:55;;;;;;;1.33;0.80;;;;;;;0.06;96.83;102168.91;6121331;23;20324;-92
2024/01/08 04:59:22;;;;;;;4.60;0.85;;;;;;;0.03;95.10;102168.84;6121306;23;20024;-93
2024/01/08 05:01:48;;;;;;;3.80;2.03;;;;;;;-0.01;96.63;102156.94;6120600;23;20060;-94
2024/01/08 05:04:14;;;;;;;1.30;0.73;;;;;;;0.06;96.64;102168.06;6120386;23;20002;-93
2024/01/08 05:06:39;;;;;;;6.03;0.70;;;;;;;0.02;96.38;102156.13;6120114;23;20482;-95
2024/01/08 05:09:04;;;;;;;2.90;1.02;;;;;;;0.01;96.08;102164.59;6119906;23;20006;-92
2024/01/08 05:11:30;;;;;;;4.82;0.85;;;;;;;-0.07;96.69;102154.34;6120103;23;20003;-94
2024/01/08 05:13:55;;;;;;;4.47;0.95;;;;;;;-0.13;97.54;102161.84;6120249;23;20006;-92
2024/01/08 05:16:21;;;;;;;4.25;0.70;;;;;;;-0.15;99.24;102169.44;6120461;23;20013;-93
2024/01/08 05:18:46;;;;;;;2.92;0.75;;;;;;;-0.04;98.59;102178.06;6120836;23;20009;-93
2024/01/08 05:21:14;;;;;;;5.07;1.23;;;;;;;0.05;98.64;102176.47;6120092;23;20037;-92
2024/01/08 05:23:39;;;;;;;2.58;0.80;;;;;;;0.16;95.33;102185.94;6121394;23;20490;-93
2024/01/08 05:26:05;;;;;;;3.95;0.80;;;;;;;0.20;97.53;102186.88;6120100;23;20006;-94
2024/01/08 05:28:30;;;;;;;8.70;1.08;;;;;;;0.30;94.08;102182.75;6120397;23;20010;-94
2024/01/08 05:30:56;;;;;;;3.55;0.90;;;;;;;0.36;94.26;102192.97;6121832;23;20441;-94
2024/01/08 05:33:22;;;;;;;2.05;0.70;;;;;;;0.35;96.01;102189.59;6121615;23;20016;-93
2024/01/08 05:35:47;;;;;;;2.80;1.23;;;;;;;0.36;97.21;102193.84;6120222;23;20002;-94
2024/01/08 05:38:13;;;;;;;2.22;0.80;;;;;;;0.45;95.22;102193.09;6119104;23;20345;-92
2024/01/08 05:40:38;;;;;;;4.57;1.10;;;;;;;0.50;96.75;102191.47;6119875;23;20071;-92
2024/01/08 05:43:04;;;;;;;5.32;2.20;;;;;;;0.47;97.50;102191.44;6119633;23;20006;-94
2024/01/08 05:45:32;;;;;;;2.50;1.10;;;;;;;0.41;97.57;102189.69;6119957;23;20492;-90
2024/01/08 05:47:58;;;;;;;2.90;0.73;;;;;;;0.47;99.26;102191.44;6121549;23;19998;-91
2024/01/08 05:50:27;;;;;;;1.77;0.63;;;;;;;0.48;100.00;102192.28;6120492;23;20009;-91
2024/01/08 05:52:54;;;;;;;2.53;0.90;;;;;;;0.46;100.00;102196.50;6120378;23;20006;-92
2024/01/08 05:55:20;;;;;;;2.45;0.90;;;;;;;0.48;100.00;102190.59;6119175;23;20010;-92
2024/01/08 05:57:46;;;;;;;2.20;0.88;;;;;;;0.53;99.71;102194.03;6119138;23;20429;-91
2024/01/08 06:00:12;;;;;;;1.95;0.95;;;;;;;0.63;97.92;102195.00;6120989;23;20085;-92
2024/01/08 06:02:37;;;;;;;1.98;0.90;;;;;;;0.67;96.25;102181.53;6119288;23;20002;-92
2024/01/08 06:05:03;;;;;;;5.43;1.05;;;;;;;0.70;96.64;102191.72;6120863;23;20039;-92
2024/01/08 06:07:28;;;;;;;2.33;0.90;;;;;;;0.76;96.06;102189.25;6120025;23;20010;-92
2024/01/08 06:09:54;;;;;;;3.47;1.52;;;;;;;0.83;93.88;102191.03;6121037;23;20041;-91
2024/01/08 06:12:19;;;;;;;1.60;0.82;;;;;;;0.82;94.01;102191.84;6120610;23;20444;-92
2024/01/08 06:14:44;;;;;;;3.10;1.38;;;;;;;0.85;95.75;102194.44;6121061;23;20005;-90
2024/01/08 06:17:10;;;;;;;4.38;1.23;;;;;;;0.78;95.21;102182.50;6120814;23;20002;-90
2024/01/08 06:19:36;;;;;;;1.42;1.30;;;;;;;0.83;95.48;102185.94;6120702;23;20029;-91
2024/01/08 06:22:02;;;;;;;1.05;0.57;;;;;;;0.80;95.59;102185.88;6119999;23;20034;-90
2024/01/08 06:24:27;;;;;;;7.03;1.17;;;;;;;0.75;97.37;102187.53;6119970;23;20013;-90
2024/01/08 06:26:52;;;;;;;8.63;1.30;;;;;;;0.74;97.40;102185.84;6120913;23;19998;-91
2024/01/08 06:29:18;;;;;;;2.58;1.02;;;;;;;0.75;95.17;102186.69;6120902;23;20068;-91
2024/01/08 06:31:44;;;;;;;8.90;1.40;;;;;;;0.80;95.11;102183.34;6119087;23;20087;-91
2024/01/08 06:34:10;;;;;;;4.45;1.02;;;;;;;0.80;96.27;102180.81;6120373;23;20064;-91
2024/01/08 06:36:35;;;;;;;4.85;1.33;;;;;;;0.77;94.05;102187.56;6119329;23;20429;-91
2024/01/08 06:39:01;;;;;;;3.05;1.27;;;;;;;0.82;94.97;102189.31;6119102;23;20006;-91
2024/01/08 06:41:26;;;;;;;6.40;1.00;;;;;;;0.76;94.99;102189.25;6120831;23;20325;-92
2024/01/08 06:43:52;;;;;;;2.72;0.90;;;;;;;0.83;96.36;102187.63;6118859;23;20380;-93
2024/01/08 06:46:18;;;;;;;5.20;1.10;;;;;;;0.76;97.02;102185.88;6120730;23;20077;-91
2024/01/08 06:48:43;;;;;;;1.77;1.02;;;;;;;0.78;97.59;102187.59;6120702;23;20443;-92
2024/01/08 06:51:11;;;;;;;3.22;1.10;;;;;;;0.80;98.01;102192.66;6118723;23;20002;-92
2024/01/08 06:53:36;;;;;;;8.85;2.38;;;;;;;0.87;97.07;102196.13;6118622;23;20036;-91
2024/01/08 06:56:02;;;;;;;4.50;1.15;;;;;;;0.84;96.72;102197.81;6120066;23;20018;-92
2024/01/08 06:58:27;;;;;;;3.67;0.90;;;;;;;0.91;97.19;102197.88;6119160;23;20085;-92
2024/01/08 07:00:53;;;;;;;2.78;1.20;;;;;;;0.91;96.36;102190.25;6119211;23;20006;-92
2024/01/08 07:03:18;;;;;;;1.70;0.85;;;;;;;0.85;98.18;102194.44;6118952;23;20479;-90
2024/01/08 07:05:43;;;;;;;3.05;1.20;;;;;;;0.90;98.29;102197.00;6120588;23;20441;-90
2024/01/08 07:08:09;;;;;;;4.85;1.20;;;;;;;0.90;99.64;102201.25;6117367;23;20041;-91
2024/01/08 07:10:34;;;;;;;3.63;1.10;;;;;;;0.84;98.33;102202.88;6118678;23;20032;-92
2024/01/08 07:13:00;;;;;;;5.80;1.20;;;;;;;0.75;99.79;102194.31;6118714;23;20006;-92
2024/01/08 07:15:36;;;;;;;1.27;1.00;;;;;;;0.80;98.97;102206.22;6119892;23;20029;-91
2024/01/08 07:18:01;;;;;;;9.13;1.20;;;;;;;0.67;100.00;102195.91;6120083;23;20002;-92
2024/01/08 07:20:27;;;;;;;2.95;1.38;;;;;;;0.63;99.22;102187.38;6117772;23;20502;-91
2024/01/08 07:22:52;;;;;;;2.78;0.95;;;;;;;0.64;100.00;102184.03;6120322;23;20325;-91
2024/01/08 07:25:17;;;;;;;2.90;0.88;;;;;;;0.56;100.00;102183.06;6120309;23;20002;-92
2024/01/08 07:27:43;;;;;;;6.40;1.10;;;;;;;0.67;100.00;102188.28;6121379;23;20006;-91
2024/01/08 07:30:09;;;;;;;2.42;0.98;;;;;;;0.66;100.00;102182.38;6118772;23;20006;-93
2024/01/08 07:32:35;;;;;;;2.80;1.00;;;;;;;0.59;100.00;102180.59;6117882;23;20067;-90
2024/01/08 07:35:02;;;;;;;7.13;1.60;;;;;;;0.55;100.00;102173.75;6117896;23;20089;-92
2024/01/08 07:37:27;;;;;;;3.05;1.15;;;;;;;0.48;100.00;102187.22;6118181;23;20022;-93
2024/01/08 07:39:52;;;;;;;4.65;1.33;;;;;;;0.45;100.00;102188.03;6120456;23;20400;-92
2024/01/08 07:42:18;;;;;;;8.75;1.40;;;;;;;0.52;100.00;102188.97;6120275;23;20306;-91
2024/01/08 07:44:43;;;;;;;2.03;0.95;;;;;;;0.57;100.00;102182.25;6119879;23;20010;-92
2024/01/08 07:47:08;;;;;;;3.05;0.95;;;;;;;0.49;100.00;102176.19;6120578;23;20429;-92
2024/01/08 07:49:34;;;;;;;7.03;1.48;;;;;;;0.36;100.00;102178.59;6117749;23;20394;-92
2024/01/08 07:51:59;;;;;;;3.00;1.10;;;;;;;0.40;100.00;102176.97;6119743;23;20081;-91
2024/01/08 07:54:24;;;;;;;2.90;0.90;;;;;;;0.48;99.73;102169.44;6120207;23;20081;-92
2024/01/08 07:56:50;;;;;;;5.85;1.10;;;;;;;0.38;100.00;102165.94;6118121;23;20071;-93
2024/01/08 07:59:15;;;;;;;3.53;1.20;;;;;;;0.54;98.34;102182.22;6120026;23;20002;-90
2024/01/08 08:01:41;;;;;;;1.98;1.02;;;;;;;0.45;97.68;102174.47;6120445;23;20139;-93
2024/01/08 08:04:06;;;;;;;3.13;0.80;;;;;;;0.42;97.13;102175.28;6119641;23;20006;-92
2024/01/08 08:06:31;;;;;;;0.93;0.70;;;;;;;0.46;95.84;102176.16;6120072;23;20042;-93
2024/01/08 08:08:57;;;;;;;1.35;0.85;;;;;;;0.45;95.16;102171.94;6120289;23;20096;-94
2024/01/08 08:11:22;;;;;;;4.35;1.10;;;;;;;0.48;95.36;102172.81;6121122;23;20041;-94
2024/01/08 08:13:47;;;;;;;5.30;1.40;;;;;;;0.34;95.02;102170.13;6120626;23;20013;-94
2024/01/08 08:16:13;;;;;;;1.70;0.95;;;;;;;0.32;94.23;102176.88;6120475;23;20381;-93
2024/01/08 08:18:39;;;;;;;2.33;0.88;;;;;;;0.30;91.88;102172.59;6122570;23;20013;-92
2024/01/08 08:21:04;;;;;;;1.98;1.10;;;;;;;0.39;92.50;102181.19;6122043;23;20029;-94
2024/01/08 08:23:32;;;;;;;10.40;1.48;;;;;;;0.42;91.68;102191.38;6120002;23;20095;-92
2024/01/08 08:25:58;;;;;;;6.07;0.90;;;;;;;0.47;92.26;102190.59;6120321;23;20013;-93
2024/01/08 08:28:23;;;;;;;3.05;1.20;;;;;;;0.42;92.53;102193.94;6120186;23;20163;-94
2024/01/08 08:30:49;;;;;;;3.05;0.98;;;;;;;0.39;94.10;102201.50;6120207;23;20033;-92
2024/01/08 08:33:14;;;;;;;4.05;1.33;;;;;;;0.51;89.44;102197.41;6122235;23;19998;-93
2024/01/08 08:35:39;;;;;;;2.00;0.70;;;;;;;0.55;89.08;102204.25;6120895;23;20006;-94
2024/01/08 08:38:05;;;;;;;3.47;0.95;;;;;;;0.69;87.27;102200.19;6120480;23;20006;-94
2024/01/08 08:40:30;;;;;;;8.55;1.10;;;;;;;0.73;86.89;102199.41;6121129;23;20009;-95
2024/01/08 08:42:55;;;;;;;3.45;1.00;;;;;;;0.75;88.76;102205.31;6121103;23;20010;-94
2024/01/08 08:45:21;;;;;;;17.52;1.42;;;;;;;0.77;89.07;102201.13;6120330;23;20017;-92
2024/01/08 08:47:46;;;;;;;17.00;4.28;;;;;;;0.82;89.14;102199.47;6118980;23;20384;-93
2024/01/08 08:50:12;;;;;;;8.35;1.20;;;;;;;0.91;90.79;102208.06;6118556;23;20010;-94
2024/01/08 08:52:39;;;;;;;6.63;1.00;;;;;;;0.87;92.49;102206.31;6119256;23;20282;-93
2024/01/08 08:55:05;;;;;;;2.03;0.98;;;;;;;0.94;90.40;102203.84;6119996;23;20085;-94
2024/01/08 08:57:30;;;;;;;3.28;0.80;;;;;;;1.04;88.12;102202.25;6118826;23;20131;-92
2024/01/08 08:59:55;;;;;;;3.65;1.10;;;;;;;1.10;86.89;102204.88;6118044;23;20002;-92
2024/01/08 09:02:22;;;;;;;8.07;1.10;;;;;;;1.12;85.75;102208.25;6118563;23;20216;-93
2024/01/08 09:04:49;;;;;;;2.00;0.95;;;;;;;1.23;85.74;102211.78;6119822;23;20028;-92
2024/01/08 09:07:14;;;;;;;2.40;0.80;;;;;;;1.24;88.10;102207.53;6119783;23;20033;-91
2024/01/08 09:09:40;;;;;;;4.40;1.00;;;;;;;1.24;85.77;102208.41;6120984;23;20463;-93
2024/01/08 09:12:06;;;;;;;1.60;1.00;;;;;;;1.30;83.13;102199.13;6118272;23;20288;-93
2024/01/08 09:14:31;;;;;;;1.85;0.52;;;;;;;1.36;86.13;102216.97;6119238;23;20006;-93
2024/01/08 09:16:57;;;;;;;4.50;1.00;;;;;;;1.44;84.51;102215.34;6117942;23;20379;-93
2024/01/08 09:19:23;;;;;;;2.83;1.05;;;;;;;1.46;85.27;102211.13;6120689;23;20009;-93
2024/01/08 09:21:48;;;;;;;4.70;0.90;;;;;;;1.53;83.51;102204.41;6121054;23;20002;-92
2024/01/08 09:24:14;;;;;;;1.58;1.08;;;;;;;1.56;84.54;102212.06;6117490;23;20009;-91
2024/01/08 09:26:41;;;;;;;2.50;1.15;;;;;;;1.57;81.46;102213.78;6118276;23;20056;-92
2024/01/08 09:29:09;;;;;;;2.35;0.80;;;;;;;1.58;79.87;102203.59;6117576;23;20028;-91
2024/01/08 09:31:35;;;;;;;2.45;0.90;;;;;;;1.59;78.80;102212.94;6118914;23;20029;-91
2024/01/08 09:34:00;;;;;;;3.58;1.00;;;;;;;1.66;79.30;102211.31;6116276;23;20441;-90
2024/01/08 09:36:25;;;;;;;3.00;1.00;;;;;;;1.68;78.92;102213.03;6114421;23;20329;-91
2024/01/08 09:38:51;;;;;;;3.08;1.33;;;;;;;1.58;78.06;102216.31;6115916;23;20093;-91
2024/01/08 09:41:16;;;;;;;3.97;1.15;;;;;;;1.69;78.55;102217.25;6119272;23;20026;-92
2024/01/08 09:43:46;;;;;;;2.95;1.23;;;;;;;1.71;79.07;102210.50;6118891;23;20006;-91
2024/01/08 09:46:17;;;;;;;4.25;1.08;;;;;;;1.81;79.15;102218.22;6118116;23;20017;-91
2024/01/08 09:48:43;;;;;;;4.13;1.30;;;;;;;1.84;80.29;102208.03;6120284;23;20005;-91
2024/01/08 09:51:09;;;;;;;1.67;0.95;;;;;;;1.85;79.14;102210.63;6119376;23;20006;-91
2024/01/08 09:53:36;;;;;;;4.45;0.90;;;;;;;1.87;77.25;102208.06;6121277;23;20429;-92
2024/01/08 09:56:03;;;;;;;3.63;0.65;;;;;;;2.01;76.34;102211.56;6121571;23;20072;-91
2024/01/08 09:58:28;;;;;;;2.00;0.90;;;;;;;1.90;76.66;102203.84;6121726;23;20006;-91
2024/01/08 10:00:54;;;;;;;3.42;0.73;;;;;;;2.04;75.24;102218.38;6121644;23;20045;-90
2024/01/08 10:03:20;;;;;;;2.25;0.85;;;;;;;2.00;72.60;102214.97;6120526;23;20006;-91
2024/01/08 10:05:45;;;;;;;0.70;0.65;;;;;;;1.87;72.96;102210.59;6120717;23;20006;-91
2024/01/08 10:08:11;;;;;;;5.05;1.10;;;;;;;2.06;72.11;102220.06;6121217;23;20337;-90
2024/01/08 10:10:36;;;;;;;5.30;1.52;;;;;;;2.00;70.93;102224.25;6118690;23;20005;-91
2024/01/08 10:13:02;;;;;;;4.00;1.00;;;;;;;2.05;72.74;102220.94;6120595;23;20018;-90
2024/01/08 10:15:28;;;;;;;1.95;1.00;;;;;;;2.11;72.04;102220.94;6121256;23;20440;-91
2024/01/08 10:18:01;;;;;;;3.83;0.90;;;;;;;2.09;68.90;102222.63;6121022;23;20013;-91
2024/01/08 10:20:27;;;;;;;2.50;1.20;;;;;;;2.14;70.82;102227.75;6121165;23;20002;-91
2024/01/08 10:23:09;;;;;;;2.85;1.20;;;;;;;2.27;70.66;102224.47;6119843;23;20013;-90
2024/01/08 10:25:39;;;;;;;4.85;2.15;;;;;;;2.45;70.17;102231.34;6121312;23;20321;-91
2024/01/08 10:28:13;;;;;;;5.00;1.73;;;;;;;2.39;68.85;102215.16;6121200;23;20009;-91
2024/01/08 10:30:42;;;;;;;2.50;0.90;;;;;;;2.31;68.81;102225.31;6121362;23;20364;-90
2024/01/08 10:33:07;;;;;;;1.58;0.90;;;;;;;2.47;69.69;102232.19;6119892;23;20490;-91
2024/01/08 10:35:35;;;;;;;2.47;1.10;;;;;;;2.53;70.10;102234.75;6119413;23;19998;-91
2024/01/08 10:38:01;;;;;;;3.75;1.10;;;;;;;2.29;69.38;102235.50;6119448;23;20058;-92
2024/01/08 10:40:30;;;;;;;5.78;1.10;;;;;;;2.30;69.63;102237.22;6119537;23;20010;-91
2024/01/08 10:42:56;;;;;;;1.77;1.30;;;;;;;2.07;71.47;102226.91;6119724;23;20002;-90
2024/01/08 10:45:22;;;;;;;7.28;1.92;;;;;;;2.25;73.48;102235.47;6119580;23;20006;-89
2024/01/08 10:48:15;;;;;;;6.40;1.63;;;;;;;2.30;71.59;102233.81;6121037;23;20068;-90
2024/01/08 10:50:45;;;;;;;3.78;1.50;;;;;;;2.44;70.50;102239.84;6121092;23;20045;-92
2024/01/08 10:53:21;;;;;;;4.53;1.75;;;;;;;2.49;71.16;102238.16;6120585;23;20009;-91
2024/01/08 10:55:48;;;;;;;3.67;2.00;;;;;;;2.49;74.60;102235.63;6120918;23;20060;-91
2024/01/08 10:58:24;;;;;;;5.57;1.67;;;;;;;2.45;72.63;102231.34;6120610;23;20006;-91
2024/01/08 11:00:50;;;;;;;5.57;2.92;;;;;;;2.28;74.69;102231.25;6120599;23;20002;-90
2024/01/08 11:03:16;;;;;;;5.30;1.92;;;;;;;2.29;75.85;102232.97;6120696;23;20002;-91
2024/01/08 11:05:49;;;;;;;5.18;1.25;;;;;;;2.47;75.66;102234.75;6120515;23;20006;-91
2024/01/08 11:08:14;;;;;;;3.85;1.38;;;;;;;2.51;71.54;102225.41;6120398;23;19998;-90
2024/01/08 11:10:40;;;;;;;1.35;0.68;;;;;;;2.45;69.83;102226.25;6121112;23;20451;-91
2024/01/08 11:13:05;;;;;;;3.25;1.02;;;;;;;2.68;70.14;102222.94;6119206;23;20002;-92
2024/01/08 11:15:31;;;;;;;1.77;1.08;;;;;;;2.63;70.93;102219.53;6119255;23;20016;-89
2024/01/08 11:18:03;;;;;;;6.10;1.05;;;;;;;2.55;68.14;102222.88;6118803;23;20014;-91
2024/01/08 11:20:41;;;;;;;2.67;0.68;;;;;;;2.59;69.52;102228.03;6121092;23;20006;-91
2024/01/08 11:23:36;;;;;;;3.40;1.00;;;;;;;2.46;69.70;102217.75;6120744;23;20429;-89
2024/01/08 11:26:03;;;;;;;3.60;1.25;;;;;;;2.24;69.80;102221.03;6118663;23;20038;-91